createdAt,value
2019-04-01T00:01:16.373Z,100942
2019-04-01T00:03:45.900Z,100942
2019-04-01T00:06:14.739Z,100935
2019-04-01T00:08:43.587Z,100940
2019-04-01T00:11:12.434Z,100942
2019-04-01T00:13:41.278Z,100941
2019-04-01T00:16:10.118Z,100944
2019-04-01T00:18:38.959Z,100939
2019-04-01T00:21:07.799Z,100942
2019-04-01T00:23:36.630Z,100939
2019-04-01T00:26:05.476Z,100945
2019-04-01T00:28:34.307Z,100953
2019-04-01T00:31:03.153Z,100949
2019-04-01T00:33:31.992Z,100950
2019-04-01T00:36:00.836Z,100947
2019-04-01T00:38:29.681Z,100949
2019-04-01T00:40:58.510Z,100951
2019-04-01T00:43:27.444Z,100950
2019-04-01T00:45:56.288Z,100936
2019-04-01T00:48:25.129Z,100940
2019-04-01T00:50:54.842Z,100929
2019-04-01T00:53:23.633Z,100927
2019-04-01T00:55:53.213Z,100922
2019-04-01T00:58:22.053Z,100918
2019-04-01T01:00:50.892Z,100928
2019-04-01T01:03:19.736Z,100928
2019-04-01T01:05:48.571Z,100931
2019-04-01T01:08:17.412Z,100939
2019-04-01T01:10:46.259Z,100929
2019-04-01T01:13:15.108Z,100938
2019-04-01T01:15:43.942Z,100930
2019-04-01T01:18:12.786Z,100936
2019-04-01T01:20:41.661Z,100931
2019-04-01T01:23:10.499Z,100935
2019-04-01T01:25:39.340Z,100937
2019-04-01T01:28:08.174Z,100928
2019-04-01T01:30:37.076Z,100926
2019-04-01T01:33:05.850Z,100924
2019-04-01T01:35:34.670Z,100920
2019-04-01T01:38:03.513Z,100922
2019-04-01T01:40:32.348Z,100917
2019-04-01T01:43:01.189Z,100921
2019-04-01T01:45:30.014Z,100910
2019-04-01T01:47:59.600Z,100920
2019-04-01T01:50:28.442Z,100924
2019-04-01T01:52:57.286Z,100913
2019-04-01T01:55:26.704Z,100916
2019-04-01T01:57:55.540Z,100911
2019-04-01T02:00:24.379Z,100917
2019-04-01T02:02:53.224Z,100910
2019-04-01T02:05:22.074Z,100913
2019-04-01T02:07:50.900Z,100914
2019-04-01T02:10:19.730Z,100913
2019-04-01T02:12:48.655Z,100905
2019-04-01T02:15:17.418Z,100910
2019-04-01T02:17:46.308Z,100909
2019-04-01T02:20:15.098Z,100907
2019-04-01T02:22:43.935Z,100909
2019-04-01T02:25:12.768Z,100907
2019-04-01T02:27:42.344Z,100899
2019-04-01T02:30:11.180Z,100905
2019-04-01T02:32:40.024Z,100904
2019-04-01T02:35:08.858Z,100905
2019-04-01T02:37:37.700Z,100905
2019-04-01T02:40:06.546Z,100902
2019-04-01T02:42:35.396Z,100897
2019-04-01T02:45:04.235Z,100904
2019-04-01T02:47:33.075Z,100899
2019-04-01T02:50:02.671Z,100895
2019-04-01T02:52:31.506Z,100906
2019-04-01T02:55:00.611Z,100903
2019-04-01T02:57:29.935Z,100897
2019-04-01T02:59:58.772Z,100903
2019-04-01T03:02:27.619Z,100896
2019-04-01T03:04:56.442Z,100900
2019-04-01T03:07:26.056Z,100891
2019-04-01T03:09:54.925Z,100896
2019-04-01T03:12:23.740Z,100900
2019-04-01T03:14:52.572Z,100893
2019-04-01T03:17:21.406Z,100895
2019-04-01T03:19:50.988Z,100901
2019-04-01T03:22:19.825Z,100898
2019-04-01T03:24:48.665Z,100903
2019-04-01T03:27:17.791Z,100901
2019-04-01T03:29:46.387Z,100905
2019-04-01T03:32:15.201Z,100902
2019-04-01T03:34:44.033Z,100906
2019-04-01T03:37:13.641Z,100909
2019-04-01T03:39:43.217Z,100910
2019-04-01T03:42:12.116Z,100905
2019-04-01T03:44:40.925Z,100905
2019-04-01T03:47:09.759Z,100910
2019-04-01T03:49:38.596Z,100904
2019-04-01T03:52:10.267Z,100910
2019-04-01T03:54:36.283Z,100902
2019-04-01T03:57:05.148Z,100901
2019-04-01T03:59:33.982Z,100897
2019-04-01T04:02:02.862Z,100897
2019-04-01T04:04:32.261Z,100908
2019-04-01T04:07:01.116Z,100908
2019-04-01T04:09:29.953Z,100911
2019-04-01T04:11:58.802Z,100912
2019-04-01T04:14:27.657Z,100907
2019-04-01T04:16:56.495Z,100917
2019-04-01T04:19:25.340Z,100904
2019-04-01T04:21:54.239Z,100908
2019-04-01T04:24:23.759Z,100916
2019-04-01T04:26:52.595Z,100914
2019-04-01T04:29:21.433Z,100914
2019-04-01T04:31:50.270Z,100925
2019-04-01T04:34:19.115Z,100924
2019-04-01T04:36:47.961Z,100921
2019-04-01T04:39:16.815Z,100914
2019-04-01T04:41:45.636Z,100926
2019-04-01T04:44:14.495Z,100915
2019-04-01T04:46:43.332Z,100921
2019-04-01T04:49:12.163Z,100925
2019-04-01T04:51:41.741Z,100925
2019-04-01T04:54:10.590Z,100924
2019-04-01T04:56:39.436Z,100924
2019-04-01T04:59:08.285Z,100929
2019-04-01T05:01:37.126Z,100926
2019-04-01T05:04:05.954Z,100926
2019-04-01T05:06:34.795Z,100929
2019-04-01T05:09:03.625Z,100926
2019-04-01T05:11:32.464Z,100924
2019-04-01T05:14:01.329Z,100926
2019-04-01T05:16:30.164Z,100934
2019-04-01T05:18:59.776Z,100930
2019-04-01T05:21:28.676Z,100933
2019-04-01T05:23:58.271Z,100941
2019-04-01T05:26:27.857Z,100942
2019-04-01T05:28:56.750Z,100943
2019-04-01T05:31:25.595Z,100938
2019-04-01T05:33:55.994Z,100943
2019-04-01T05:36:23.990Z,100931
2019-04-01T05:38:52.853Z,100945
2019-04-01T05:41:22.458Z,100946
2019-04-01T05:43:51.314Z,100947
2019-04-01T05:46:20.144Z,100943
2019-04-01T05:48:48.978Z,100942
2019-04-01T05:51:17.808Z,100942
2019-04-01T05:53:46.662Z,100935
2019-04-01T05:56:15.520Z,100947
2019-04-01T05:58:44.380Z,100951
2019-04-01T06:01:13.249Z,100946
2019-04-01T06:03:42.049Z,100947
2019-04-01T06:06:11.643Z,100949
2019-04-01T06:08:40.495Z,100951
2019-04-01T06:11:09.334Z,100954
2019-04-01T06:13:38.192Z,100958
2019-04-01T06:16:07.080Z,100961
2019-04-01T06:18:35.880Z,100954
2019-04-01T06:21:04.717Z,100961
2019-04-01T06:23:33.567Z,100963
2019-04-01T06:26:02.414Z,100966
2019-04-01T06:28:31.243Z,100959
2019-04-01T06:31:00.084Z,100957
2019-04-01T06:33:28.938Z,100960
2019-04-01T06:35:57.773Z,100956
2019-04-01T06:38:26.617Z,100956
2019-04-01T06:40:56.214Z,100957
2019-04-01T06:43:25.069Z,100962
2019-04-01T06:45:53.914Z,100953
2019-04-01T06:48:22.757Z,100955
2019-04-01T06:50:51.608Z,100957
2019-04-01T06:53:20.447Z,100945
2019-04-01T06:55:49.281Z,100944
2019-04-01T06:58:18.145Z,100943
2019-04-01T07:00:47.728Z,100949
2019-04-01T07:03:18.713Z,100940
2019-04-01T07:05:45.981Z,100949
2019-04-01T07:08:14.822Z,100942
2019-04-01T07:10:43.734Z,100939
2019-04-01T07:13:12.545Z,100947
2019-04-01T07:15:41.381Z,100946
2019-04-01T07:18:10.225Z,100941
2019-04-01T07:20:39.057Z,100943
2019-04-01T07:23:07.887Z,100940
2019-04-01T07:25:36.775Z,100940
2019-04-01T07:28:05.586Z,100946
2019-04-01T07:30:34.491Z,100937
2019-04-01T07:33:03.354Z,100941
2019-04-01T07:35:32.186Z,100938
2019-04-01T07:38:01.047Z,100947
2019-04-01T07:40:29.889Z,100941
2019-04-01T07:42:59.483Z,100949
2019-04-01T07:45:28.318Z,100948
2019-04-01T07:47:57.164Z,100945
2019-04-01T07:50:26.005Z,100944
2019-04-01T07:52:55.560Z,100948
2019-04-01T07:55:23.690Z,100946
2019-04-01T07:57:52.528Z,100939
2019-04-01T08:00:21.462Z,100939
2019-04-01T08:02:50.220Z,100945
2019-04-01T08:05:19.065Z,100935
2019-04-01T08:07:47.929Z,100930
2019-04-01T08:10:16.777Z,100926
2019-04-01T08:12:45.640Z,100928
2019-04-01T08:15:14.474Z,100935
2019-04-01T08:17:43.326Z,100930
2019-04-01T08:20:12.175Z,100931
2019-04-01T08:22:43.292Z,100935
2019-04-01T08:25:10.616Z,100927
2019-04-01T08:27:39.470Z,100929
2019-04-01T08:30:08.347Z,100933
2019-04-01T08:32:37.199Z,100924
2019-04-01T08:35:06.133Z,100929
2019-04-01T08:37:34.905Z,100926
2019-04-01T08:40:03.770Z,100926
2019-04-01T08:42:32.615Z,100926
2019-04-01T08:45:01.454Z,100930
2019-04-01T08:47:31.043Z,100931
2019-04-01T08:49:59.893Z,100929
2019-04-01T08:52:28.743Z,100926
2019-04-01T08:54:57.606Z,100921
2019-04-01T08:57:26.467Z,100919
2019-04-01T08:59:56.471Z,100915
2019-04-01T09:02:24.891Z,100904
2019-04-01T09:04:53.749Z,100914
2019-04-01T09:07:22.606Z,100908
2019-04-01T09:09:51.455Z,100920
2019-04-01T09:12:20.330Z,100907
2019-04-01T09:14:49.164Z,100910
2019-04-01T09:17:18.743Z,100906
2019-04-01T09:19:47.583Z,100907
2019-04-01T09:22:16.431Z,100904
2019-04-01T09:24:46.031Z,100910
2019-04-01T09:27:14.867Z,100898
2019-04-01T09:29:43.713Z,100892
2019-04-01T09:32:13.344Z,100895
2019-04-01T09:34:42.181Z,100902
2019-04-01T09:37:11.057Z,100893
2019-04-01T09:39:39.870Z,100886
2019-04-01T09:42:08.718Z,100884
2019-04-01T09:44:37.565Z,100890
2019-04-01T09:47:06.977Z,100878
2019-04-01T09:49:36.569Z,100876
2019-04-01T09:52:06.152Z,100874
2019-04-01T09:54:35.031Z,100880
2019-04-01T09:57:16.613Z,100879
2019-04-01T09:59:32.695Z,100874
2019-04-01T10:02:01.541Z,100870
2019-04-01T10:04:31.133Z,100869
2019-04-01T10:06:59.993Z,100878
2019-04-01T10:09:28.850Z,100867
2019-04-01T10:11:57.709Z,100865
2019-04-01T10:14:27.297Z,100861
2019-04-01T10:16:56.144Z,100858
2019-04-01T10:19:25.006Z,100851
2019-04-01T10:21:53.850Z,100844
2019-04-01T10:24:22.679Z,100843
2019-04-01T10:26:52.277Z,100835
2019-04-01T10:29:21.158Z,100837
2019-04-01T10:31:49.958Z,100839
2019-04-01T10:34:18.826Z,100829
2019-04-01T10:36:47.664Z,100831
2019-04-01T10:39:16.500Z,100822
2019-04-01T10:41:45.408Z,100819
2019-04-01T10:44:14.208Z,100822
2019-04-01T10:46:43.855Z,100816
2019-04-01T10:49:12.693Z,100813
2019-04-01T10:51:41.521Z,100808
2019-04-01T10:54:10.340Z,100818
2019-04-01T10:56:39.255Z,100810
2019-04-01T10:59:08.798Z,100801
2019-04-01T11:01:37.726Z,100796
2019-04-01T11:04:06.561Z,100790
2019-04-01T11:06:36.051Z,100787
2019-04-01T11:09:04.991Z,100785
2019-04-01T11:11:33.747Z,100784
2019-04-01T11:14:02.609Z,100788
2019-04-01T11:16:31.937Z,100778
2019-04-01T11:19:00.303Z,100774
2019-04-01T11:21:29.167Z,100770
2019-04-01T11:23:58.022Z,100770
2019-04-01T11:26:26.855Z,100768
2019-04-01T11:28:55.712Z,100764
2019-04-01T11:31:24.597Z,100771
2019-04-01T11:33:53.498Z,100760
2019-04-01T11:36:22.297Z,100752
2019-04-01T11:38:51.876Z,100750
2019-04-01T11:41:20.737Z,100750
2019-04-01T11:43:49.551Z,100735
2019-04-01T11:46:18.404Z,100733
2019-04-01T11:48:47.243Z,100725
2019-04-01T11:51:31.187Z,100719
2019-04-01T11:53:44.943Z,100721
2019-04-01T11:56:13.805Z,100713
2019-04-01T11:58:42.654Z,100709
2019-04-01T12:01:11.504Z,100701
2019-04-01T12:03:40.389Z,100700
2019-04-01T12:06:09.251Z,100699
2019-04-01T12:08:38.089Z,100688
2019-04-01T12:11:06.931Z,100685
2019-04-01T12:13:35.771Z,100686
2019-04-01T12:16:04.760Z,100686
2019-04-01T12:18:33.468Z,100684
2019-04-01T12:21:03.060Z,100682
2019-04-01T12:23:32.542Z,100677
2019-04-01T12:26:14.422Z,100670
2019-04-01T12:28:30.225Z,100662
2019-04-01T12:30:59.083Z,100660
2019-04-01T12:33:27.921Z,100654
2019-04-01T12:36:11.175Z,100646
2019-04-01T12:38:29.691Z,100648
2019-04-01T12:40:58.541Z,100645
2019-04-01T12:43:27.386Z,100646
2019-04-01T12:45:56.246Z,100642
2019-04-01T12:48:25.592Z,100631
2019-04-01T12:50:53.947Z,100628
2019-04-01T12:53:22.774Z,100637
2019-04-01T12:55:51.612Z,100617
2019-04-01T12:58:24.961Z,100623
2019-04-01T13:00:51.598Z,100620
2019-04-01T13:03:19.987Z,100618
2019-04-01T13:05:48.709Z,100614
2019-04-01T13:08:17.574Z,100601
2019-04-01T13:10:46.439Z,100598
2019-04-01T13:13:15.728Z,100590
2019-04-01T13:15:44.869Z,100580
2019-04-01T13:18:13.720Z,100587
2019-04-01T13:20:42.574Z,100579
2019-04-01T13:23:11.447Z,100576
2019-04-01T13:25:40.304Z,100570
2019-04-01T13:28:09.148Z,100558
2019-04-01T13:30:38.012Z,100560
2019-04-01T13:33:06.863Z,100553
2019-04-01T13:35:35.721Z,100549
2019-04-01T13:38:04.581Z,100539
2019-04-01T13:40:33.434Z,100549
2019-04-01T13:43:04.646Z,100538
2019-04-01T13:45:31.873Z,100544
2019-04-01T13:47:59.953Z,100536
2019-04-01T13:50:28.804Z,100530
2019-04-01T13:52:57.633Z,100523
2019-04-01T13:55:26.485Z,100526
2019-04-01T13:57:55.327Z,100519
2019-04-01T14:00:27.348Z,100514
2019-04-01T14:02:53.744Z,100511
2019-04-01T14:05:22.601Z,100509
2019-04-01T14:07:51.439Z,100509
2019-04-01T14:10:21.031Z,100500
2019-04-01T14:12:49.874Z,100502
2019-04-01T14:15:18.735Z,100498
2019-04-01T14:17:47.564Z,100495
2019-04-01T14:20:16.415Z,100492
2019-04-01T14:22:45.273Z,100494
2019-04-01T14:25:14.477Z,100483
2019-04-01T14:27:42.973Z,100478
2019-04-01T14:30:11.834Z,100478
2019-04-01T14:32:41.408Z,100484
2019-04-01T14:35:10.263Z,100480
2019-04-01T14:37:39.899Z,100477
2019-04-01T14:40:09.076Z,100475
2019-04-01T14:42:39.527Z,100468
2019-04-01T14:45:06.390Z,100469
2019-04-01T14:47:35.966Z,100471
2019-04-01T14:50:07.717Z,100468
2019-04-01T14:52:33.680Z,100476
2019-04-01T14:55:03.263Z,100471
2019-04-01T14:57:32.105Z,100460
2019-04-01T15:00:00.949Z,100459
2019-04-01T15:02:30.541Z,100460
2019-04-01T15:04:59.403Z,100465
2019-04-01T15:07:28.252Z,100456
2019-04-01T15:09:57.118Z,100462
2019-04-01T15:12:25.970Z,100460
2019-04-01T15:14:54.800Z,100459
2019-04-01T15:17:23.741Z,100456
2019-04-01T15:19:52.492Z,100452
2019-04-01T15:22:22.718Z,100454
2019-04-01T15:24:50.194Z,100448
2019-04-01T15:27:22.390Z,100438
2019-04-01T15:29:48.642Z,100440
2019-04-01T15:32:17.483Z,100437
2019-04-01T15:34:46.333Z,100436
2019-04-01T15:37:15.177Z,100424
2019-04-01T15:39:47.014Z,100425
2019-04-01T15:42:14.118Z,100428
2019-04-01T15:44:41.691Z,100418
2019-04-01T15:47:10.559Z,100421
2019-04-01T15:49:40.215Z,100419
2019-04-01T15:52:08.231Z,100416
2019-04-01T15:54:37.815Z,100416
2019-04-01T15:57:06.652Z,100421
2019-04-01T15:59:35.486Z,100419
2019-04-01T16:02:04.360Z,100420
2019-04-01T16:04:33.211Z,100413
2019-04-01T16:07:02.027Z,100407
2019-04-01T16:09:30.861Z,100403
2019-04-01T16:12:00.452Z,100395
2019-04-01T16:14:29.307Z,100402
2019-04-01T16:16:58.174Z,100394
2019-04-01T16:19:29.136Z,100394
2019-04-01T16:21:56.633Z,100393
2019-04-01T16:24:25.573Z,100391
2019-04-01T16:26:54.410Z,100385
2019-04-01T16:29:23.219Z,100389
2019-04-01T16:31:55.206Z,100386
2019-04-01T16:34:20.969Z,100393
2019-04-01T16:39:11.049Z,100391
2019-04-01T16:41:39.908Z,100385
2019-04-01T16:44:09.486Z,100380
2019-04-01T16:46:38.330Z,100388
2019-04-01T16:49:07.725Z,100379
2019-04-01T16:51:36.018Z,100387
2019-04-01T16:54:04.857Z,100381
2019-04-01T16:56:34.464Z,100375
2019-04-01T16:59:03.316Z,100380
2019-04-01T17:01:32.174Z,100379
2019-04-01T17:04:01.025Z,100375
2019-04-01T17:06:29.881Z,100379
2019-04-01T17:08:58.741Z,100381
2019-04-01T17:11:27.577Z,100374
2019-04-01T17:13:56.430Z,100383
2019-04-01T17:16:25.294Z,100371
2019-04-01T17:18:57.508Z,100377
2019-04-01T17:21:22.983Z,100377
2019-04-01T17:23:52.563Z,100378
2019-04-01T17:26:22.259Z,100374
2019-04-01T17:28:50.253Z,100374
2019-04-01T17:31:19.101Z,100372
2019-04-01T17:33:48.060Z,100368
2019-04-01T17:36:16.791Z,100375
2019-04-01T17:38:48.102Z,100372
2019-04-01T17:41:14.493Z,100375
2019-04-01T17:43:43.336Z,100373
2019-04-01T17:46:12.166Z,100372
2019-04-01T17:48:41.778Z,100376
2019-04-01T17:51:11.355Z,100369
2019-04-01T17:53:40.197Z,100372
2019-04-01T17:56:09.037Z,100368
2019-04-01T17:58:37.871Z,100373
2019-04-01T18:01:06.717Z,100367
2019-04-01T18:03:35.567Z,100378
2019-04-01T18:06:04.411Z,100368
2019-04-01T18:08:34.218Z,100371
2019-04-01T18:11:02.853Z,100367
2019-04-01T18:13:31.692Z,100365
2019-04-01T18:16:00.536Z,100370
2019-04-01T18:18:29.387Z,100378
2019-04-01T18:20:58.238Z,100375
2019-04-01T18:23:27.079Z,100366
2019-04-01T18:25:55.941Z,100370
2019-04-01T18:28:24.797Z,100371
2019-04-01T18:30:53.623Z,100375
2019-04-01T18:33:23.220Z,100372
2019-04-01T18:35:52.051Z,100375
2019-04-01T18:38:20.896Z,100375
2019-04-01T18:40:49.749Z,100367
2019-04-01T18:43:18.591Z,100380
2019-04-01T18:45:48.186Z,100380
2019-04-01T18:48:17.033Z,100377
2019-04-01T18:50:45.886Z,100382
2019-04-01T18:53:14.754Z,100381
2019-04-01T18:55:43.606Z,100384
2019-04-01T18:58:12.457Z,100385
2019-04-01T19:00:41.370Z,100379
2019-04-01T19:03:10.659Z,100387
2019-04-01T19:05:39.231Z,100383
2019-04-01T19:08:07.824Z,100390
2019-04-01T19:10:39.157Z,100388
2019-04-01T19:13:07.578Z,100380
2019-04-01T19:15:35.710Z,100390
2019-04-01T19:18:03.253Z,100389
2019-04-01T19:20:32.843Z,100381
2019-04-01T19:23:02.233Z,100379
2019-04-01T19:25:30.543Z,100383
2019-04-01T19:28:00.133Z,100384
2019-04-01T19:30:28.989Z,100382
2019-04-01T19:32:57.850Z,100386
2019-04-01T19:35:26.699Z,100384
2019-04-01T19:37:56.366Z,100388
2019-04-01T19:40:24.473Z,100385
2019-04-01T19:42:53.274Z,100388
2019-04-01T19:45:22.130Z,100385
2019-04-01T19:47:51.001Z,100385
2019-04-01T19:50:19.887Z,100382
2019-04-01T19:52:48.701Z,100380
2019-04-01T19:55:17.573Z,100377
2019-04-01T19:57:46.417Z,100379
2019-04-01T20:00:27.010Z,100373
2019-04-01T20:02:44.095Z,100373
2019-04-01T20:05:12.969Z,100376
2019-04-01T20:07:44.079Z,100369
2019-04-01T20:10:11.991Z,100374
2019-04-01T20:12:41.217Z,100362
2019-04-01T20:15:11.826Z,100373
2019-04-01T20:17:39.583Z,100372
2019-04-01T20:20:08.105Z,100368
2019-04-01T20:22:36.948Z,100359
2019-04-01T20:25:06.531Z,100361
2019-04-01T20:27:35.451Z,100353
2019-04-01T20:30:05.187Z,100355
2019-04-01T20:32:34.029Z,100356
2019-04-01T20:35:02.861Z,100363
2019-04-01T20:37:31.720Z,100355
2019-04-01T20:40:00.531Z,100348
2019-04-01T20:42:29.379Z,100351
2019-04-01T20:44:58.223Z,100355
2019-04-01T20:47:28.482Z,100351
2019-04-01T20:49:56.442Z,100348
2019-04-01T20:52:25.270Z,100343
2019-04-01T20:54:54.164Z,100342
2019-04-01T20:57:23.015Z,100339
2019-04-01T20:59:51.854Z,100336
2019-04-01T21:02:20.698Z,100341
2019-04-01T21:04:49.530Z,100332
2019-04-01T21:07:18.686Z,100340
2019-04-01T21:09:47.995Z,100337
2019-04-01T21:12:16.834Z,100335
2019-04-01T21:14:45.664Z,100330
2019-04-01T21:17:14.522Z,100324
2019-04-01T21:19:44.288Z,100323
2019-04-01T21:22:12.970Z,100323
2019-04-01T21:24:41.834Z,100320
2019-04-01T21:27:10.673Z,100320
2019-04-01T21:29:40.248Z,100322
2019-04-01T21:32:09.118Z,100317
2019-04-01T21:34:37.975Z,100325
2019-04-01T21:37:06.819Z,100322
2019-04-01T21:39:37.820Z,100314
2019-04-01T21:42:05.837Z,100313
2019-04-01T21:44:34.677Z,100314
2019-04-01T21:47:03.555Z,100316
2019-04-01T21:49:32.420Z,100306
2019-04-01T21:52:02.244Z,100309
2019-04-01T21:54:30.859Z,100308
2019-04-01T21:56:59.697Z,100308
2019-04-01T21:59:29.305Z,100313
2019-04-01T22:01:58.141Z,100304
2019-04-01T22:04:26.981Z,100307
2019-04-01T22:06:56.551Z,100305
2019-04-01T22:09:25.400Z,100305
2019-04-01T22:11:54.244Z,100300
2019-04-01T22:14:23.072Z,100306
2019-04-01T22:16:51.985Z,100300
2019-04-01T22:19:20.751Z,100292
2019-04-01T22:21:49.586Z,100293
2019-04-01T22:24:18.434Z,100292
2019-04-01T22:26:47.276Z,100288
2019-04-01T22:29:16.706Z,100292
2019-04-01T22:31:45.551Z,100286
2019-04-01T22:34:14.391Z,100285
2019-04-01T22:36:43.236Z,100280
2019-04-01T22:39:12.066Z,100280
2019-04-01T22:41:41.652Z,100280
2019-04-01T22:44:09.741Z,100279
2019-04-01T22:46:39.326Z,100276
2019-04-01T22:49:08.158Z,100289
2019-04-01T22:51:37.262Z,100276
2019-04-01T22:54:05.846Z,100280
2019-04-01T22:56:34.710Z,100277
2019-04-01T22:59:03.546Z,100272
2019-04-01T23:01:32.359Z,100279
2019-04-01T23:04:01.239Z,100272
2019-04-01T23:06:30.074Z,100273
2019-04-01T23:08:59.931Z,100266
2019-04-01T23:11:27.770Z,100268
2019-04-01T23:13:56.604Z,100265
2019-04-01T23:16:25.452Z,100260
2019-04-01T23:18:54.297Z,100258
2019-04-01T23:21:23.868Z,100265
2019-04-01T23:23:52.712Z,100255
2019-04-01T23:26:21.560Z,100255
2019-04-01T23:28:50.400Z,100255
2019-04-01T23:31:19.236Z,100252
2019-04-01T23:33:48.116Z,100249
2019-04-01T23:36:16.973Z,100251
2019-04-01T23:38:45.805Z,100255
2019-04-01T23:41:14.679Z,100249
2019-04-01T23:43:43.498Z,100253
2019-04-01T23:46:12.342Z,100253
2019-04-01T23:48:42.131Z,100251
2019-04-01T23:51:10.040Z,100251
2019-04-01T23:53:38.884Z,100243
2019-04-01T23:56:07.718Z,100239
2019-04-01T23:58:36.556Z,100242
